createdAt,value
2022-10-12T00:00:33.308Z,14.35
2022-10-12T00:03:01.151Z,13.87
2022-10-12T00:05:28.871Z,13.95
2022-10-12T00:07:56.556Z,13.99
2022-10-12T00:10:24.271Z,13.68
2022-10-12T00:12:52.006Z,13.64
2022-10-12T00:15:21.118Z,13.41
2022-10-12T00:17:48.814Z,13.16
2022-10-12T00:20:16.572Z,13.34
2022-10-12T00:22:44.293Z,13.23
2022-10-12T00:25:11.987Z,13.51
2022-10-12T00:27:39.894Z,13.67
2022-10-12T00:30:08.784Z,13.40
2022-10-12T00:32:37.822Z,13.40
2022-10-12T00:35:06.155Z,13.38
2022-10-12T00:37:33.888Z,13.60
2022-10-12T00:40:01.572Z,13.07
2022-10-12T00:42:29.331Z,13.02
2022-10-12T00:44:57.067Z,13.40
2022-10-12T00:47:29.191Z,13.34
2022-10-12T00:50:05.838Z,13.65
2022-10-12T00:52:38.078Z,13.77
2022-10-12T00:55:07.647Z,13.50
2022-10-12T00:57:35.687Z,13.37
2022-10-12T01:00:07.733Z,13.41
2022-10-12T01:02:37.186Z,13.75
2022-10-12T01:05:07.269Z,13.94
2022-10-12T01:07:35.193Z,13.65
2022-10-12T01:10:03.406Z,13.67
2022-10-12T01:12:31.744Z,13.40
2022-10-12T01:14:59.454Z,13.41
2022-10-12T01:17:37.318Z,13.67
2022-10-12T01:20:45.837Z,13.64
2022-10-12T01:23:44.240Z,13.67
2022-10-12T01:26:41.471Z,14.06
2022-10-12T01:29:24.182Z,13.62
2022-10-12T01:32:00.128Z,14.16
2022-10-12T01:34:37.846Z,14.09
2022-10-12T01:37:12.567Z,13.86
2022-10-12T01:39:46.452Z,13.87
2022-10-12T01:42:19.897Z,13.86
2022-10-12T01:44:47.620Z,13.43
2022-10-12T01:47:16.694Z,13.40
2022-10-12T01:49:44.427Z,13.36
2022-10-12T01:52:25.518Z,13.44
2022-10-12T01:55:20.947Z,13.85
2022-10-12T01:57:59.930Z,13.68
2022-10-12T02:00:27.697Z,13.73
2022-10-12T02:03:04.273Z,13.56
2022-10-12T02:05:37.918Z,13.73
2022-10-12T02:08:10.804Z,13.72
2022-10-12T02:10:41.810Z,13.78
2022-10-12T02:13:14.454Z,13.77
2022-10-12T02:15:44.849Z,13.53
2022-10-12T02:18:18.156Z,13.42
2022-10-12T02:20:47.924Z,13.31
2022-10-12T02:23:16.711Z,13.22
2022-10-12T02:25:45.031Z,13.20
2022-10-12T02:28:16.420Z,12.97
2022-10-12T02:30:48.842Z,12.73
2022-10-12T02:33:25.714Z,12.81
2022-10-12T02:35:59.288Z,12.87
2022-10-12T02:38:33.006Z,12.91
2022-10-12T02:41:05.983Z,12.59
2022-10-12T02:43:38.162Z,12.61
2022-10-12T02:46:09.413Z,12.89
2022-10-12T02:48:41.116Z,13.03
2022-10-12T02:51:11.396Z,13.36
2022-10-12T02:53:39.821Z,12.90
2022-10-12T02:56:12.460Z,12.70
2022-10-12T02:58:41.649Z,13.00
2022-10-12T03:01:09.639Z,13.07
2022-10-12T03:03:39.092Z,12.99
2022-10-12T03:06:08.327Z,13.11
2022-10-12T03:08:36.305Z,12.95
2022-10-12T03:11:04.815Z,12.43
2022-10-12T03:13:32.475Z,12.50
2022-10-12T03:16:04.179Z,12.84
2022-10-12T03:18:32.148Z,12.69
2022-10-12T03:21:01.255Z,12.84
2022-10-12T03:23:29.295Z,12.60
2022-10-12T03:25:57.096Z,13.06
2022-10-12T03:28:24.954Z,13.48
2022-10-12T03:30:52.737Z,12.57
2022-10-12T03:33:20.526Z,13.01
2022-10-12T03:35:48.464Z,13.52
2022-10-12T03:38:18.772Z,13.10
2022-10-12T03:40:47.335Z,13.10
2022-10-12T03:43:15.477Z,13.11
2022-10-12T03:45:43.233Z,13.34
2022-10-12T03:48:10.916Z,12.76
2022-10-12T03:50:38.622Z,12.39
2022-10-12T03:53:06.830Z,12.64
2022-10-12T03:55:35.895Z,12.51
2022-10-12T03:58:03.687Z,12.63
2022-10-12T04:00:31.452Z,13.04
2022-10-12T04:02:59.145Z,12.99
2022-10-12T04:05:27.040Z,12.73
2022-10-12T04:07:54.788Z,12.46
2022-10-12T04:10:22.574Z,12.32
2022-10-12T04:12:51.656Z,11.94
2022-10-12T04:15:20.051Z,12.77
2022-10-12T04:17:47.801Z,12.42
2022-10-12T04:20:15.588Z,12.47
2022-10-12T04:22:43.441Z,12.43
2022-10-12T04:25:12.319Z,12.63
2022-10-12T04:27:40.326Z,12.50
2022-10-12T04:30:12.039Z,12.36
2022-10-12T04:32:39.787Z,12.61
2022-10-12T04:35:07.961Z,12.59
2022-10-12T04:37:35.887Z,12.74
2022-10-12T04:40:03.898Z,12.57
2022-10-12T04:42:31.578Z,12.85
2022-10-12T04:44:59.286Z,12.34
2022-10-12T04:47:28.344Z,12.70
2022-10-12T04:49:56.236Z,12.86
2022-10-12T04:52:23.955Z,12.04
2022-10-12T04:54:51.674Z,12.99
2022-10-12T04:57:19.466Z,13.11
2022-10-12T04:59:47.132Z,12.94
2022-10-12T05:02:14.844Z,12.84
2022-10-12T05:04:43.900Z,12.71
2022-10-12T05:07:11.576Z,12.72
2022-10-12T05:09:39.292Z,12.98
2022-10-12T05:12:07.336Z,12.28
2022-10-12T05:14:36.126Z,12.32
2022-10-12T05:17:04.059Z,12.32
2022-10-12T05:19:31.829Z,12.16
2022-10-12T05:22:00.901Z,12.27
2022-10-12T05:24:28.740Z,11.98
2022-10-12T05:26:56.844Z,11.72
2022-10-12T05:29:24.662Z,12.04
2022-10-12T05:31:52.348Z,12.08
2022-10-12T05:34:20.295Z,12.15
2022-10-12T05:36:48.038Z,11.78
2022-10-12T05:39:17.109Z,11.71
2022-10-12T05:41:44.839Z,11.71
2022-10-12T05:44:12.640Z,11.21
2022-10-12T05:46:40.340Z,11.32
2022-10-12T05:49:08.025Z,11.44
2022-10-12T05:51:35.723Z,11.32
2022-10-12T05:54:03.402Z,11.45
2022-10-12T05:56:32.600Z,11.68
2022-10-12T05:59:00.282Z,11.60
2022-10-12T06:01:28.142Z,11.59
2022-10-12T06:03:55.846Z,11.20
2022-10-12T06:06:24.118Z,11.24
2022-10-12T06:08:51.830Z,11.49
2022-10-12T06:11:19.517Z,11.62
2022-10-12T06:13:48.577Z,11.32
2022-10-12T06:16:16.282Z,11.77
2022-10-12T06:18:44.005Z,11.23
2022-10-12T06:21:32.355Z,11.14
2022-10-12T06:23:59.387Z,11.19
2022-10-12T06:26:27.085Z,11.09
2022-10-12T06:28:56.305Z,11.13
2022-10-12T06:31:24.293Z,11.09
2022-10-12T06:33:52.462Z,11.42
2022-10-12T06:36:20.304Z,11.56
2022-10-12T06:38:47.988Z,11.78
2022-10-12T06:41:15.687Z,11.61
2022-10-12T06:43:44.244Z,11.83
2022-10-12T06:46:13.318Z,11.29
2022-10-12T06:48:41.077Z,11.62
2022-10-12T06:51:08.762Z,11.56
2022-10-12T06:53:36.705Z,11.65
2022-10-12T06:56:07.306Z,12.12
2022-10-12T06:58:35.294Z,12.02
2022-10-12T07:01:04.633Z,12.18
2022-10-12T07:03:33.835Z,12.49
2022-10-12T07:06:09.364Z,12.16
2022-10-12T07:08:37.254Z,12.29
2022-10-12T07:11:06.238Z,12.07
2022-10-12T07:13:34.676Z,12.47
2022-10-12T07:16:02.444Z,12.46
2022-10-12T07:18:30.200Z,12.64
2022-10-12T07:20:59.826Z,12.52
2022-10-12T07:23:27.898Z,12.16
2022-10-12T07:25:55.843Z,12.63
2022-10-12T07:28:23.677Z,12.78
2022-10-12T07:30:51.872Z,13.00
2022-10-12T07:33:19.572Z,13.20
2022-10-12T07:36:12.668Z,13.11
2022-10-12T07:38:44.792Z,12.81
2022-10-12T07:41:12.941Z,13.69
2022-10-12T07:43:40.617Z,13.66
2022-10-12T07:46:09.124Z,13.73
2022-10-12T07:48:37.836Z,15.10
2022-10-12T07:51:05.977Z,14.85
2022-10-12T07:53:35.331Z,15.88
2022-10-12T07:56:06.314Z,16.28
2022-10-12T07:58:34.339Z,17.12
2022-10-12T08:01:06.073Z,17.42
2022-10-12T08:03:33.797Z,15.51
2022-10-12T08:06:01.547Z,16.15
2022-10-12T08:08:29.205Z,16.47
2022-10-12T08:10:57.794Z,15.71
2022-10-12T08:13:26.897Z,15.77
2022-10-12T08:15:54.570Z,16.94
2022-10-12T08:18:22.268Z,17.74
2022-10-12T08:20:50.014Z,16.95
2022-10-12T08:23:17.717Z,17.12
2022-10-12T08:25:52.700Z,17.41
2022-10-12T08:28:20.483Z,17.67
2022-10-12T08:30:49.625Z,18.46
2022-10-12T08:33:18.683Z,17.87
2022-10-12T08:35:47.697Z,18.18
2022-10-12T08:38:16.192Z,19.30
2022-10-12T08:40:50.681Z,20.75
2022-10-12T08:43:28.915Z,19.46
2022-10-12T08:46:01.016Z,20.52
2022-10-12T08:48:33.347Z,19.25
2022-10-12T08:51:04.181Z,19.37
2022-10-12T08:53:37.393Z,20.57
2022-10-12T08:56:05.579Z,18.91
2022-10-12T08:58:35.843Z,18.34
2022-10-12T09:01:16.754Z,20.61
2022-10-12T09:03:57.543Z,17.90
2022-10-12T09:06:29.194Z,17.79
2022-10-12T09:09:06.195Z,18.51
2022-10-12T09:11:48.090Z,17.93
2022-10-12T09:14:20.826Z,17.96
2022-10-12T09:16:52.421Z,16.81
2022-10-12T09:19:22.468Z,17.23
2022-10-12T09:21:51.586Z,16.53
2022-10-12T09:24:21.318Z,17.64
2022-10-12T09:26:52.258Z,18.14
2022-10-12T09:29:25.919Z,17.68
2022-10-12T09:32:10.109Z,16.74
2022-10-12T09:34:38.070Z,16.77
2022-10-12T09:37:07.154Z,17.84
2022-10-12T09:39:36.952Z,18.52
2022-10-12T09:42:05.653Z,18.05
2022-10-12T09:44:36.698Z,18.80
2022-10-12T09:47:07.677Z,19.24
2022-10-12T09:49:43.295Z,19.25
2022-10-12T09:52:12.188Z,19.53
2022-10-12T09:54:41.834Z,19.72
2022-10-12T09:57:10.359Z,19.60
2022-10-12T09:59:40.790Z,19.31
2022-10-12T10:02:16.725Z,19.22
2022-10-12T10:04:46.148Z,19.03
2022-10-12T10:07:21.651Z,17.89
2022-10-12T10:10:04.471Z,18.08
2022-10-12T10:12:32.631Z,18.21
2022-10-12T10:15:00.820Z,17.39
2022-10-12T10:17:32.570Z,17.69
2022-10-12T10:20:03.449Z,17.32
2022-10-12T10:22:32.040Z,17.09
2022-10-12T10:25:01.343Z,16.60
2022-10-12T10:27:33.253Z,17.21
2022-10-12T10:30:32.455Z,17.12
2022-10-12T10:33:16.230Z,17.17
2022-10-12T10:36:05.941Z,16.37
2022-10-12T10:38:51.503Z,16.66
2022-10-12T10:41:19.920Z,16.63
2022-10-12T10:43:49.451Z,17.17
2022-10-12T10:46:23.763Z,16.88
2022-10-12T10:48:57.750Z,17.01
2022-10-12T10:51:42.768Z,16.72
2022-10-12T10:54:18.526Z,17.28
2022-10-12T10:56:47.718Z,16.72
2022-10-12T10:59:21.952Z,16.90
2022-10-12T11:01:55.267Z,17.14
2022-10-12T11:04:30.289Z,16.98
2022-10-12T11:07:02.682Z,17.23
2022-10-12T11:09:40.209Z,17.47
2022-10-12T11:12:14.063Z,17.35
2022-10-12T11:14:45.831Z,17.47
2022-10-12T11:17:20.759Z,17.45
2022-10-12T11:19:55.892Z,17.27
2022-10-12T11:22:31.312Z,17.31
2022-10-12T11:25:06.495Z,17.28
2022-10-12T11:27:40.572Z,15.90
2022-10-12T11:30:16.177Z,16.16
2022-10-12T11:32:46.279Z,16.52
2022-10-12T11:35:24.091Z,16.71
2022-10-12T11:37:56.930Z,17.05
2022-10-12T11:43:22.114Z,16.99
2022-10-12T11:45:53.451Z,16.56
2022-10-12T11:48:27.312Z,16.55
2022-10-12T11:51:03.045Z,16.59
2022-10-12T11:53:41.479Z,16.61
2022-10-12T11:56:15.709Z,17.02
2022-10-12T11:59:00.704Z,17.48
2022-10-12T12:01:50.928Z,17.10
2022-10-12T12:07:55.214Z,17.16
2022-10-12T12:10:51.437Z,17.30
2022-10-12T12:13:23.309Z,17.55
2022-10-12T12:16:32.805Z,17.09
2022-10-12T12:19:37.243Z,16.89
2022-10-12T12:22:23.551Z,17.36
2022-10-12T12:25:04.183Z,17.74
2022-10-12T12:27:37.068Z,17.76
2022-10-12T12:30:21.459Z,17.99
2022-10-12T12:32:50.819Z,17.76
2022-10-12T12:35:22.868Z,17.43
2022-10-12T12:37:56.036Z,18.27
2022-10-12T12:40:25.053Z,17.06
2022-10-12T12:42:54.107Z,17.47
2022-10-12T12:45:41.477Z,17.33
2022-10-12T12:48:11.494Z,17.29
2022-10-12T12:50:41.731Z,17.05
2022-10-12T12:53:17.975Z,17.42
2022-10-12T12:56:05.067Z,17.60
2022-10-12T12:58:52.292Z,17.79
2022-10-12T13:01:55.147Z,17.94
2022-10-12T13:04:50.025Z,17.43
2022-10-12T13:07:46.617Z,17.55
2022-10-12T13:10:36.227Z,18.03
2022-10-12T13:13:18.398Z,19.87
2022-10-12T13:16:00.470Z,21.01
2022-10-12T13:18:55.249Z,21.95
2022-10-12T13:21:25.261Z,22.37
2022-10-12T13:24:00.546Z,21.64
2022-10-12T13:26:31.383Z,22.35
2022-10-12T13:29:02.712Z,21.54
2022-10-12T13:31:38.892Z,21.46
2022-10-12T13:34:13.785Z,20.97
2022-10-12T13:36:57.703Z,21.67
2022-10-12T13:39:25.457Z,22.69
2022-10-12T13:41:55.782Z,21.83
2022-10-12T13:44:26.919Z,21.49
2022-10-12T13:46:59.222Z,22.42
2022-10-12T13:49:28.975Z,21.97
2022-10-12T13:51:59.413Z,22.23
2022-10-12T13:54:34.929Z,22.00
2022-10-12T13:57:05.734Z,19.80
2022-10-12T13:59:38.887Z,20.13
2022-10-12T14:02:19.225Z,19.35
2022-10-12T14:04:46.921Z,18.70
2022-10-12T14:07:20.537Z,18.59
2022-10-12T14:09:52.543Z,18.23
2022-10-12T14:12:25.194Z,18.55
2022-10-12T14:14:54.517Z,18.85
2022-10-12T14:17:24.896Z,18.33
2022-10-12T14:19:55.163Z,18.48
2022-10-12T14:22:25.703Z,18.50
2022-10-12T14:25:07.931Z,18.42
2022-10-12T14:27:39.218Z,18.31
2022-10-12T14:30:08.679Z,18.18
2022-10-12T14:32:44.249Z,17.48
2022-10-12T14:35:24.144Z,17.52
2022-10-12T14:37:54.850Z,17.43
2022-10-12T14:40:35.279Z,17.93
2022-10-12T14:43:07.871Z,17.75
2022-10-12T14:45:36.073Z,17.43
2022-10-12T14:48:07.347Z,17.77
2022-10-12T14:50:35.125Z,17.69
2022-10-12T14:53:06.595Z,18.61
2022-10-12T14:55:35.247Z,18.26
2022-10-12T14:58:03.748Z,18.27
2022-10-12T15:00:33.837Z,18.48
2022-10-12T15:03:02.122Z,17.90
2022-10-12T15:05:33.624Z,17.91
2022-10-12T15:08:07.117Z,17.86
2022-10-12T15:10:34.836Z,17.93
2022-10-12T15:13:02.562Z,18.27
2022-10-12T15:15:35.837Z,18.81
2022-10-12T15:18:03.764Z,18.69
2022-10-12T15:20:33.618Z,19.39
2022-10-12T15:23:02.768Z,19.22
2022-10-12T15:25:40.312Z,19.18
2022-10-12T15:28:08.024Z,19.29
2022-10-12T15:30:43.442Z,19.02
2022-10-12T15:33:24.127Z,18.75
2022-10-12T15:35:53.183Z,19.01
2022-10-12T15:38:20.914Z,18.54
2022-10-12T15:40:48.645Z,18.58
2022-10-12T15:45:49.657Z,18.31
2022-10-12T15:48:17.380Z,18.01
2022-10-12T15:50:47.807Z,17.59
2022-10-12T15:53:20.537Z,17.69
2022-10-12T15:55:48.950Z,17.68
2022-10-12T15:58:16.703Z,17.09
2022-10-12T16:00:44.541Z,17.11
2022-10-12T16:03:18.226Z,16.99
2022-10-12T16:05:49.140Z,16.78
2022-10-12T16:08:18.190Z,16.58
2022-10-12T16:10:47.745Z,16.35
2022-10-12T16:13:15.953Z,16.83
2022-10-12T16:15:44.618Z,16.86
2022-10-12T16:18:15.418Z,16.28
2022-10-12T16:20:46.666Z,15.80
2022-10-12T16:23:23.085Z,16.06
2022-10-12T16:25:50.932Z,15.83
2022-10-12T16:28:19.205Z,15.54
2022-10-12T16:30:46.977Z,15.83
2022-10-12T16:33:14.680Z,15.69
2022-10-12T16:35:42.685Z,15.66
2022-10-12T16:38:11.335Z,15.35
2022-10-12T16:40:40.993Z,15.21
2022-10-12T16:43:08.826Z,15.56
2022-10-12T16:45:36.772Z,15.58
2022-10-12T16:48:04.865Z,15.75
2022-10-12T16:50:32.630Z,15.38
2022-10-12T16:53:00.443Z,15.43
2022-10-12T16:55:28.112Z,15.43
2022-10-12T16:57:57.171Z,15.20
2022-10-12T17:00:25.098Z,15.31
2022-10-12T17:02:57.274Z,15.35
2022-10-12T17:05:25.281Z,14.68
2022-10-12T17:07:53.034Z,14.65
2022-10-12T17:10:20.728Z,14.63
2022-10-12T17:12:48.700Z,14.49
2022-10-12T17:15:17.888Z,14.56
2022-10-12T17:17:45.622Z,14.64
2022-10-12T17:20:13.541Z,14.46
2022-10-12T17:22:41.452Z,14.74
2022-10-12T17:25:10.206Z,14.43
2022-10-12T17:27:37.874Z,14.72
2022-10-12T17:30:06.170Z,14.19
2022-10-12T17:32:37.789Z,14.02
2022-10-12T17:35:06.027Z,14.02
2022-10-12T17:37:33.740Z,13.86
2022-10-12T17:40:01.452Z,13.66
2022-10-12T17:42:29.191Z,13.76
2022-10-12T17:44:56.894Z,13.93
2022-10-12T17:47:24.618Z,14.05
2022-10-12T17:49:53.709Z,14.06
2022-10-12T17:52:21.418Z,14.07
2022-10-12T17:54:49.152Z,13.70
2022-10-12T17:57:17.036Z,13.77
2022-10-12T17:59:44.944Z,13.63
2022-10-12T18:02:12.658Z,13.45
2022-10-12T18:04:40.354Z,13.75
2022-10-12T18:07:10.967Z,13.49
2022-10-12T18:09:44.720Z,13.37
2022-10-12T18:12:12.499Z,13.84
2022-10-12T18:14:40.307Z,14.01
2022-10-12T18:17:07.976Z,13.96
2022-10-12T18:19:35.673Z,13.83
2022-10-12T18:22:03.409Z,14.04
2022-10-12T18:24:32.472Z,13.76
2022-10-12T18:27:00.174Z,13.70
2022-10-12T18:29:27.887Z,13.60
2022-10-12T18:31:55.602Z,13.65
2022-10-12T18:34:23.326Z,13.74
2022-10-12T18:36:52.835Z,13.29
2022-10-12T18:39:21.275Z,13.58
2022-10-12T18:41:52.622Z,13.79
2022-10-12T18:44:22.087Z,13.63
2022-10-12T18:46:49.936Z,13.53
2022-10-12T18:49:17.680Z,13.42
2022-10-12T18:51:48.612Z,13.46
2022-10-12T18:54:17.108Z,13.30
2022-10-12T18:56:45.672Z,13.25
2022-10-12T18:59:17.799Z,13.37
2022-10-12T19:01:46.235Z,13.10
2022-10-12T19:04:14.392Z,13.24
2022-10-12T19:06:43.363Z,13.00
2022-10-12T19:09:13.161Z,13.19
2022-10-12T19:11:40.938Z,13.24
2022-10-12T19:14:13.659Z,13.20
2022-10-12T19:16:42.963Z,13.28
2022-10-12T19:19:19.711Z,13.10
2022-10-12T19:21:48.962Z,13.25
2022-10-12T19:24:17.035Z,13.22
2022-10-12T19:26:45.525Z,12.91
2022-10-12T19:29:13.515Z,12.91
2022-10-12T19:31:45.239Z,12.83
2022-10-12T19:34:14.391Z,13.04
2022-10-12T19:36:42.896Z,12.81
2022-10-12T19:39:13.533Z,13.24
2022-10-12T19:41:41.679Z,13.02
2022-10-12T19:44:09.359Z,12.88
2022-10-12T19:46:37.081Z,12.71
2022-10-12T19:49:06.477Z,12.90
2022-10-12T19:51:34.426Z,12.82
2022-10-12T19:54:04.808Z,12.49
2022-10-12T19:56:32.573Z,12.89
2022-10-12T19:59:00.315Z,12.88
2022-10-12T20:01:30.049Z,12.41
2022-10-12T20:03:57.782Z,12.92
2022-10-12T20:06:29.292Z,12.67
2022-10-12T20:08:58.576Z,12.84
2022-10-12T20:11:26.600Z,12.56
2022-10-12T20:13:54.695Z,12.58
2022-10-12T20:16:22.947Z,12.33
2022-10-12T20:18:51.546Z,12.36
2022-10-12T20:21:22.919Z,12.32
2022-10-12T20:23:52.805Z,12.04
2022-10-12T20:26:22.737Z,12.04
2022-10-12T20:28:50.894Z,12.01
2022-10-12T20:31:22.915Z,12.38
2022-10-12T20:33:53.025Z,12.50
2022-10-12T20:36:23.462Z,12.41
2022-10-12T20:38:53.148Z,12.28
2022-10-12T20:41:21.982Z,12.13
2022-10-12T20:43:50.164Z,12.03
2022-10-12T20:46:19.271Z,12.24
2022-10-12T20:48:47.543Z,11.96
2022-10-12T20:51:20.304Z,12.26
2022-10-12T20:53:48.130Z,12.53
2022-10-12T20:56:17.194Z,12.22
2022-10-12T20:58:44.893Z,12.12
2022-10-12T21:01:14.663Z,11.98
2022-10-12T21:03:42.668Z,12.02
2022-10-12T21:06:12.281Z,11.94
2022-10-12T21:08:40.936Z,11.80
2022-10-12T21:11:09.245Z,12.26
2022-10-12T21:13:41.161Z,12.52
2022-10-12T21:16:09.593Z,11.78
2022-10-12T21:18:38.351Z,12.20
2022-10-12T21:21:11.415Z,12.36
2022-10-12T21:23:39.634Z,11.93
2022-10-12T21:26:11.437Z,12.05
2022-10-12T21:28:40.759Z,11.67
2022-10-12T21:31:09.352Z,11.55
2022-10-12T21:33:37.990Z,11.39
2022-10-12T21:36:10.361Z,11.63
2022-10-12T21:38:38.107Z,11.40
2022-10-12T21:41:06.854Z,11.65
2022-10-12T21:43:34.932Z,11.54
2022-10-12T21:46:05.376Z,11.44
2022-10-12T21:48:33.953Z,11.53
2022-10-12T21:51:02.451Z,11.80
2022-10-12T21:53:30.915Z,11.43
2022-10-12T21:55:58.710Z,11.63
2022-10-12T21:58:26.382Z,11.29
2022-10-12T22:00:54.158Z,11.44
2022-10-12T22:03:24.301Z,11.61
2022-10-12T22:05:51.991Z,11.42
2022-10-12T22:08:19.666Z,11.86
2022-10-12T22:10:47.409Z,11.54
2022-10-12T22:13:15.107Z,11.45
2022-10-12T22:15:42.825Z,11.96
2022-10-12T22:18:10.495Z,11.75
2022-10-12T22:20:40.194Z,11.67
2022-10-12T22:23:07.891Z,11.54
2022-10-12T22:25:35.569Z,11.38
2022-10-12T22:28:03.247Z,11.22
2022-10-12T22:30:30.956Z,11.55
2022-10-12T22:32:58.639Z,11.58
2022-10-12T22:35:26.346Z,11.45
2022-10-12T22:37:55.401Z,11.53
2022-10-12T22:40:23.150Z,11.32
2022-10-12T22:42:50.859Z,11.16
2022-10-12T22:45:18.928Z,10.94
2022-10-12T22:47:46.595Z,10.86
2022-10-12T22:50:14.284Z,11.40
2022-10-12T22:52:41.986Z,11.08
2022-10-12T22:55:11.352Z,10.68
2022-10-12T22:57:39.066Z,10.81
2022-10-12T23:00:07.918Z,10.67
2022-10-12T23:02:35.595Z,10.50
2022-10-12T23:05:03.479Z,10.59
2022-10-12T23:07:31.148Z,10.65
2022-10-12T23:09:58.844Z,10.68
2022-10-12T23:12:27.869Z,10.52
2022-10-12T23:14:55.568Z,10.56
2022-10-12T23:17:23.229Z,10.40
2022-10-12T23:19:50.959Z,10.58
2022-10-12T23:22:18.867Z,10.49
2022-10-12T23:24:47.600Z,10.53
2022-10-12T23:27:15.565Z,10.36
2022-10-12T23:29:44.676Z,10.60
2022-10-12T23:32:12.368Z,10.67
2022-10-12T23:34:40.170Z,10.67
2022-10-12T23:37:08.171Z,10.72
2022-10-12T23:39:36.677Z,10.53
2022-10-12T23:42:04.376Z,10.30
2022-10-12T23:44:32.096Z,10.26
2022-10-12T23:47:01.153Z,10.27
2022-10-12T23:49:28.823Z,10.47
2022-10-12T23:51:56.548Z,10.55
2022-10-12T23:54:24.590Z,10.19
2022-10-12T23:56:52.289Z,10.09
2022-10-12T23:59:20.049Z,10.28
